createdAt,value
2019-05-09T00:00:53.228Z,98.03
2019-05-09T00:01:50.902Z,98.22
2019-05-09T00:02:51.065Z,98.13
2019-05-09T00:03:51.188Z,97.66
2019-05-09T00:04:53.265Z,98.42
2019-05-09T00:05:51.456Z,98.32
2019-05-09T00:06:51.613Z,98.13
2019-05-09T00:07:53.218Z,97.66
2019-05-09T00:08:53.243Z,98.42
2019-05-09T00:09:53.334Z,98.03
2019-05-09T00:10:53.433Z,98.80
2019-05-09T00:11:53.089Z,98.42
2019-05-09T00:12:54.014Z,98.51
2019-05-09T00:13:53.867Z,98.32
2019-05-09T00:14:53.966Z,98.03
2019-05-09T00:15:54.176Z,98.51
2019-05-09T00:16:53.171Z,98.70
2019-05-09T00:17:53.351Z,98.13
2019-05-09T00:18:54.041Z,98.03
2019-05-09T00:19:53.915Z,98.42
2019-05-09T00:20:53.992Z,98.03
2019-05-09T00:21:54.059Z,98.13
2019-05-09T00:22:53.973Z,98.42
2019-05-09T00:23:54.208Z,97.75
2019-05-09T00:24:54.096Z,98.03
2019-05-09T00:25:54.092Z,98.03
2019-05-09T00:26:54.246Z,97.94
2019-05-09T00:27:54.369Z,98.51
2019-05-09T00:28:54.534Z,97.46
2019-05-09T00:29:54.643Z,97.46
2019-05-09T00:30:54.779Z,97.66
2019-05-09T00:31:54.905Z,97.56
2019-05-09T00:32:55.063Z,97.56
2019-05-09T00:33:55.185Z,97.37
2019-05-09T00:34:55.305Z,97.66
2019-05-09T00:35:55.439Z,97.37
2019-05-09T00:36:55.580Z,97.17
2019-05-09T00:37:55.710Z,96.89
2019-05-09T00:38:55.833Z,96.98
2019-05-09T00:39:55.961Z,97.08
2019-05-09T00:40:59.041Z,97.17
2019-05-09T00:41:56.339Z,96.70
2019-05-09T00:42:56.358Z,96.61
2019-05-09T00:43:56.478Z,96.32
2019-05-09T00:44:56.622Z,96.32
2019-05-09T00:45:56.751Z,96.41
2019-05-09T00:46:56.884Z,96.13
2019-05-09T00:47:57.014Z,95.94
2019-05-09T00:48:57.177Z,96.80
2019-05-09T00:49:57.299Z,96.51
2019-05-09T00:50:57.431Z,96.13
2019-05-09T00:51:57.560Z,96.51
2019-05-09T00:52:57.730Z,96.41
2019-05-09T00:53:57.852Z,96.32
2019-05-09T00:54:57.981Z,96.13
2019-05-09T00:55:58.117Z,95.94
2019-05-09T00:56:58.255Z,95.94
2019-05-09T00:57:58.372Z,96.22
2019-05-09T00:58:58.508Z,96.22
2019-05-09T00:59:58.631Z,96.61
2019-05-09T01:00:58.786Z,95.56
2019-05-09T01:01:58.933Z,96.41
2019-05-09T01:02:59.103Z,95.37
2019-05-09T01:03:59.205Z,96.13
2019-05-09T01:04:59.360Z,96.41
2019-05-09T01:05:59.483Z,96.03
2019-05-09T01:06:59.646Z,95.56
2019-05-09T01:07:59.740Z,96.13
2019-05-09T01:08:59.875Z,96.03
2019-05-09T01:11:33.299Z,95.94
2019-05-09T01:12:34.146Z,96.41
2019-05-09T01:13:34.114Z,96.80
2019-05-09T01:14:33.930Z,96.70
2019-05-09T01:15:33.549Z,96.61
2019-05-09T01:16:33.622Z,96.61
2019-05-09T01:17:33.611Z,96.56
2019-05-09T01:18:33.391Z,96.70
2019-05-09T01:19:33.905Z,96.56
2019-05-09T01:20:33.631Z,95.94
2019-05-09T01:21:33.774Z,96.03
2019-05-09T01:22:33.906Z,96.27
2019-05-09T01:23:34.538Z,96.51
2019-05-09T01:24:34.218Z,96.41
2019-05-09T01:25:34.345Z,96.22
2019-05-09T01:26:34.496Z,96.41
2019-05-09T01:27:34.614Z,96.32
2019-05-09T01:28:34.741Z,96.41
2019-05-09T01:29:34.878Z,96.13
2019-05-09T01:30:35.025Z,96.41
2019-05-09T01:31:35.166Z,96.13
2019-05-09T01:32:35.295Z,95.94
2019-05-09T01:33:35.421Z,95.94
2019-05-09T01:34:35.564Z,96.22
2019-05-09T01:35:35.691Z,96.13
2019-05-09T01:36:35.816Z,96.17
2019-05-09T01:37:35.963Z,96.32
2019-05-09T01:38:36.134Z,96.32
2019-05-09T01:39:36.264Z,96.22
2019-05-09T01:40:36.390Z,96.08
2019-05-09T01:41:36.533Z,96.03
2019-05-09T01:42:36.660Z,96.27
2019-05-09T01:43:36.794Z,96.46
2019-05-09T01:44:36.923Z,96.36
2019-05-09T01:45:37.070Z,96.56
2019-05-09T01:46:37.198Z,96.65
2019-05-09T01:47:37.324Z,96.56
2019-05-09T01:48:37.449Z,96.84
2019-05-09T01:49:37.597Z,96.75
2019-05-09T01:50:37.721Z,96.56
2019-05-09T01:51:37.867Z,96.56
2019-05-09T01:52:37.991Z,96.75
2019-05-09T01:53:38.115Z,96.75
2019-05-09T01:54:38.243Z,96.84
2019-05-09T01:55:38.394Z,96.65
2019-05-09T01:56:38.609Z,96.94
2019-05-09T01:57:38.608Z,96.94
2019-05-09T01:58:38.738Z,96.56
2019-05-09T01:59:38.888Z,96.65
2019-05-09T02:00:43.428Z,96.36
2019-05-09T02:01:39.105Z,96.56
2019-05-09T02:02:39.236Z,96.56
2019-05-09T02:03:39.401Z,96.46
2019-05-09T02:04:39.584Z,96.75
2019-05-09T02:05:39.589Z,96.17
2019-05-09T02:06:39.713Z,96.84
2019-05-09T02:07:39.869Z,95.89
2019-05-09T02:08:39.995Z,96.56
2019-05-09T02:09:40.139Z,96.46
2019-05-09T02:10:40.255Z,95.98
2019-05-09T02:11:43.306Z,95.89
2019-05-09T02:12:40.561Z,96.75
2019-05-09T02:13:40.682Z,95.89
2019-05-09T02:14:40.810Z,96.27
2019-05-09T02:15:40.946Z,96.08
2019-05-09T02:16:43.130Z,96.17
2019-05-09T02:17:54.138Z,96.08
2019-05-09T02:18:41.353Z,96.36
2019-05-09T02:19:43.819Z,96.27
2019-05-09T02:20:43.768Z,96.08
2019-05-09T02:21:43.653Z,96.08
2019-05-09T02:22:43.492Z,96.27
2019-05-09T02:23:43.166Z,96.27
2019-05-09T02:24:44.077Z,95.79
2019-05-09T02:25:43.835Z,96.27
2019-05-09T02:26:43.893Z,96.27
2019-05-09T02:27:43.661Z,96.36
2019-05-09T02:28:43.414Z,96.65
2019-05-09T02:29:43.993Z,95.89
2019-05-09T02:30:45.009Z,96.08
2019-05-09T02:31:44.669Z,96.08
2019-05-09T02:32:44.968Z,95.98
2019-05-09T02:33:45.593Z,96.17
2019-05-09T02:34:44.239Z,96.17
2019-05-09T02:35:55.857Z,96.08
2019-05-09T02:36:51.282Z,95.98
2019-05-09T02:37:43.911Z,96.17
2019-05-09T02:38:44.037Z,96.36
2019-05-09T02:39:44.182Z,96.08
2019-05-09T02:40:44.335Z,96.08
2019-05-09T02:41:59.599Z,96.84
2019-05-09T02:42:44.581Z,95.89
2019-05-09T02:43:44.737Z,96.75
2019-05-09T02:44:44.847Z,96.56
2019-05-09T02:45:49.335Z,95.89
2019-05-09T02:46:45.102Z,95.89
2019-05-09T02:47:45.250Z,95.89
2019-05-09T02:48:45.364Z,96.84
2019-05-09T02:49:48.383Z,96.65
2019-05-09T02:50:48.446Z,96.56
2019-05-09T02:51:48.564Z,96.36
2019-05-09T02:52:48.457Z,96.65
2019-05-09T02:53:48.597Z,96.17
2019-05-09T02:54:49.694Z,96.75
2019-05-09T02:55:49.216Z,96.51
2019-05-09T02:56:49.008Z,97.03
2019-05-09T02:57:48.967Z,96.51
2019-05-09T02:58:48.495Z,96.75
2019-05-09T02:59:49.326Z,96.94
2019-05-09T03:00:48.224Z,96.46
2019-05-09T03:01:49.457Z,96.56
2019-05-09T03:02:48.669Z,96.84
2019-05-09T03:03:48.173Z,96.56
2019-05-09T03:04:48.929Z,96.56
2019-05-09T03:05:48.809Z,96.56
2019-05-09T03:06:49.306Z,96.65
2019-05-09T03:07:48.608Z,96.08
2019-05-09T03:08:49.043Z,96.27
2019-05-09T03:09:48.259Z,96.27
2019-05-09T03:10:49.124Z,96.36
2019-05-09T03:11:48.801Z,96.27
2019-05-09T03:12:50.176Z,96.27
2019-05-09T03:13:49.623Z,95.98
2019-05-09T03:14:48.847Z,96.08
2019-05-09T03:15:49.488Z,95.89
2019-05-09T03:16:49.364Z,96.08
2019-05-09T03:17:49.871Z,95.89
2019-05-09T03:18:49.640Z,95.89
2019-05-09T03:19:49.473Z,96.27
2019-05-09T03:20:49.600Z,96.36
2019-05-09T03:21:49.724Z,96.46
2019-05-09T03:22:49.853Z,96.36
2019-05-09T03:23:50.009Z,96.36
2019-05-09T03:24:50.130Z,96.46
2019-05-09T03:25:50.254Z,96.27
2019-05-09T03:26:50.383Z,96.08
2019-05-09T03:27:50.515Z,96.17
2019-05-09T03:28:50.635Z,95.98
2019-05-09T03:29:50.766Z,96.36
2019-05-09T03:30:50.889Z,96.08
2019-05-09T03:31:51.035Z,95.51
2019-05-09T03:32:51.174Z,95.65
2019-05-09T03:33:51.292Z,95.65
2019-05-09T03:34:51.433Z,95.27
2019-05-09T03:35:51.566Z,94.79
2019-05-09T03:36:51.699Z,94.98
2019-05-09T03:37:51.819Z,94.60
2019-05-09T03:38:51.955Z,94.03
2019-05-09T03:39:52.102Z,94.79
2019-05-09T03:40:52.223Z,94.70
2019-05-09T03:41:52.366Z,94.12
2019-05-09T03:42:52.478Z,95.17
2019-05-09T03:43:52.623Z,95.17
2019-05-09T03:44:52.731Z,95.17
2019-05-09T03:45:52.857Z,94.98
2019-05-09T03:46:52.986Z,95.03
2019-05-09T03:47:53.136Z,95.61
2019-05-09T03:48:53.263Z,95.61
2019-05-09T03:49:53.397Z,95.32
2019-05-09T03:50:53.531Z,95.46
2019-05-09T03:51:53.663Z,95.94
2019-05-09T03:52:53.785Z,95.65
2019-05-09T03:53:53.927Z,95.75
2019-05-09T03:54:54.048Z,95.56
2019-05-09T03:55:54.192Z,95.46
2019-05-09T03:56:54.319Z,95.56
2019-05-09T03:57:54.447Z,95.51
2019-05-09T03:58:54.578Z,95.51
2019-05-09T03:59:54.720Z,95.51
2019-05-09T04:00:54.895Z,96.27
2019-05-09T04:01:55.034Z,96.65
2019-05-09T04:02:55.152Z,95.98
2019-05-09T04:03:55.303Z,95.98
2019-05-09T04:04:57.647Z,96.56
2019-05-09T04:06:02.415Z,96.75
2019-05-09T04:06:57.945Z,96.46
2019-05-09T04:07:57.964Z,96.65
2019-05-09T04:08:58.275Z,96.75
2019-05-09T04:09:58.374Z,96.94
2019-05-09T04:10:58.664Z,97.51
2019-05-09T04:11:58.361Z,97.32
2019-05-09T04:12:59.511Z,97.17
2019-05-09T04:13:58.146Z,97.32
2019-05-09T04:14:58.409Z,97.65
2019-05-09T04:15:58.244Z,97.65
2019-05-09T04:16:57.604Z,97.51
2019-05-09T04:17:57.872Z,97.41
2019-05-09T04:18:58.190Z,97.36
2019-05-09T04:19:57.880Z,98.03
2019-05-09T04:20:57.576Z,97.94
2019-05-09T04:21:57.800Z,97.94
2019-05-09T04:22:59.570Z,97.94
2019-05-09T04:23:58.612Z,97.94
2019-05-09T04:24:58.090Z,98.08
2019-05-09T04:25:58.387Z,97.94
2019-05-09T04:26:58.347Z,97.84
2019-05-09T04:27:58.501Z,98.03
2019-05-09T04:28:58.621Z,97.75
2019-05-09T04:29:58.757Z,98.13
2019-05-09T04:30:58.891Z,98.13
2019-05-09T04:31:59.050Z,98.13
2019-05-09T04:32:59.165Z,98.22
2019-05-09T04:33:59.288Z,98.27
2019-05-09T04:34:59.419Z,97.46
2019-05-09T04:35:59.584Z,97.70
2019-05-09T04:36:59.697Z,97.32
2019-05-09T04:37:59.836Z,97.32
2019-05-09T04:38:59.965Z,97.13
2019-05-09T04:40:03.281Z,97.32
2019-05-09T04:41:00.283Z,97.13
2019-05-09T04:42:05.219Z,97.41
2019-05-09T04:43:10.928Z,97.13
2019-05-09T04:44:04.909Z,97.22
2019-05-09T04:45:03.437Z,96.94
2019-05-09T04:46:00.926Z,96.84
2019-05-09T04:47:03.640Z,97.22
2019-05-09T04:48:01.211Z,96.65
2019-05-09T04:49:02.666Z,96.65
2019-05-09T04:50:01.461Z,96.56
2019-05-09T04:51:01.585Z,96.36
2019-05-09T04:52:01.714Z,96.65
2019-05-09T04:53:01.848Z,95.89
2019-05-09T04:54:01.987Z,96.65
2019-05-09T04:55:02.134Z,96.27
2019-05-09T04:56:02.247Z,96.08
2019-05-09T04:57:02.377Z,96.27
2019-05-09T04:58:02.504Z,96.65
2019-05-09T04:59:02.658Z,96.75
2019-05-09T05:00:02.869Z,96.56
2019-05-09T05:01:02.874Z,96.84
2019-05-09T05:02:03.001Z,96.84
2019-05-09T05:03:03.145Z,96.65
2019-05-09T05:04:03.309Z,96.46
2019-05-09T05:05:03.435Z,96.56
2019-05-09T05:06:03.571Z,96.75
2019-05-09T05:07:03.734Z,96.75
2019-05-09T05:08:03.853Z,97.03
2019-05-09T05:09:03.968Z,97.13
2019-05-09T05:10:04.106Z,96.56
2019-05-09T05:11:04.243Z,97.22
2019-05-09T05:12:04.373Z,97.13
2019-05-09T05:13:04.499Z,97.51
2019-05-09T05:14:04.626Z,97.32
2019-05-09T05:15:04.775Z,97.61
2019-05-09T05:16:04.897Z,98.08
2019-05-09T05:17:10.039Z,98.08
2019-05-09T05:18:05.150Z,97.99
2019-05-09T05:19:07.408Z,98.27
2019-05-09T05:20:05.468Z,97.41
2019-05-09T05:21:07.670Z,97.41
2019-05-09T05:22:07.437Z,97.41
2019-05-09T05:23:08.074Z,98.18
2019-05-09T05:24:08.066Z,97.89
2019-05-09T05:25:06.104Z,97.70
2019-05-09T05:26:06.233Z,97.70
2019-05-09T05:27:08.298Z,97.99
2019-05-09T05:28:08.619Z,97.99
2019-05-09T05:29:08.470Z,97.99
2019-05-09T05:30:07.505Z,97.27
2019-05-09T05:31:07.458Z,97.32
2019-05-09T05:32:08.544Z,97.32
2019-05-09T05:33:08.097Z,97.17
2019-05-09T05:34:08.302Z,98.22
2019-05-09T05:35:07.704Z,97.46
2019-05-09T05:36:07.980Z,97.94
2019-05-09T05:37:07.727Z,97.65
2019-05-09T05:38:08.515Z,97.61
2019-05-09T05:39:08.008Z,98.22
2019-05-09T05:40:08.200Z,97.27
2019-05-09T05:41:08.280Z,97.51
2019-05-09T05:42:08.462Z,97.70
2019-05-09T05:43:08.890Z,97.51
2019-05-09T05:44:08.695Z,96.94
2019-05-09T05:45:08.803Z,97.32
2019-05-09T05:46:08.930Z,96.94
2019-05-09T05:47:09.081Z,97.03
2019-05-09T05:48:09.211Z,96.84
2019-05-09T05:49:09.334Z,96.56
2019-05-09T05:50:09.465Z,96.17
2019-05-09T05:51:09.620Z,96.56
2019-05-09T05:52:09.779Z,96.65
2019-05-09T05:53:09.903Z,96.56
2019-05-09T05:54:10.023Z,96.84
2019-05-09T05:55:10.170Z,96.75
2019-05-09T05:56:10.282Z,96.65
2019-05-09T05:57:10.409Z,96.56
2019-05-09T05:58:10.536Z,97.03
2019-05-09T05:59:10.683Z,96.46
2019-05-09T06:00:10.807Z,96.08
2019-05-09T06:01:10.930Z,96.17
2019-05-09T06:02:11.062Z,96.17
2019-05-09T06:03:11.214Z,95.89
2019-05-09T06:04:11.348Z,95.41
2019-05-09T06:05:11.490Z,95.61
2019-05-09T06:06:11.621Z,96.08
2019-05-09T06:07:11.825Z,95.98
2019-05-09T06:08:11.824Z,96.56
2019-05-09T06:09:11.946Z,95.89
2019-05-09T06:10:12.094Z,95.89
2019-05-09T06:11:12.417Z,96.46
2019-05-09T06:12:12.346Z,95.98
2019-05-09T06:13:12.472Z,95.41
2019-05-09T06:14:12.620Z,95.41
2019-05-09T06:15:12.735Z,95.32
2019-05-09T06:16:12.866Z,95.98
2019-05-09T06:17:12.993Z,96.08
2019-05-09T06:18:13.156Z,95.89
2019-05-09T06:19:13.265Z,95.32
2019-05-09T06:20:13.411Z,95.22
2019-05-09T06:21:13.533Z,95.22
2019-05-09T06:22:13.636Z,95.79
2019-05-09T06:23:13.764Z,95.03
2019-05-09T06:24:13.902Z,95.12
2019-05-09T06:25:14.023Z,95.79
2019-05-09T06:26:14.166Z,95.03
2019-05-09T06:27:14.292Z,95.22
2019-05-09T06:28:14.426Z,95.12
2019-05-09T06:29:14.569Z,95.61
2019-05-09T06:30:14.713Z,95.70
2019-05-09T06:31:14.828Z,95.41
2019-05-09T06:32:14.974Z,94.08
2019-05-09T06:33:17.833Z,94.46
2019-05-09T06:34:15.266Z,94.56
2019-05-09T06:35:17.129Z,94.46
2019-05-09T06:36:15.531Z,95.22
2019-05-09T06:37:18.151Z,94.65
2019-05-09T06:38:15.796Z,95.03
2019-05-09T06:39:17.902Z,95.03
2019-05-09T06:40:17.711Z,95.51
2019-05-09T06:41:17.664Z,95.56
2019-05-09T06:42:18.103Z,95.46
2019-05-09T06:43:18.315Z,95.65
2019-05-09T06:44:20.293Z,95.94
2019-05-09T06:45:17.944Z,95.17
2019-05-09T06:46:18.272Z,95.27
2019-05-09T06:47:18.536Z,95.56
2019-05-09T06:48:18.063Z,95.56
2019-05-09T06:49:27.094Z,94.79
2019-05-09T06:50:18.465Z,94.56
2019-05-09T06:51:20.972Z,95.27
2019-05-09T06:52:17.644Z,94.70
2019-05-09T06:53:18.215Z,94.51
2019-05-09T06:54:17.899Z,95.27
2019-05-09T06:55:18.048Z,94.70
2019-05-09T06:56:18.174Z,94.60
2019-05-09T06:57:18.786Z,94.70
2019-05-09T06:58:18.441Z,94.41
2019-05-09T06:59:19.113Z,94.70
2019-05-09T07:00:18.691Z,94.70
2019-05-09T07:01:18.827Z,94.22
2019-05-09T07:02:18.961Z,93.65
2019-05-09T07:03:19.088Z,94.12
2019-05-09T07:04:19.203Z,94.32
2019-05-09T07:05:19.327Z,94.12
2019-05-09T07:06:19.458Z,94.51
2019-05-09T07:07:19.599Z,93.93
2019-05-09T07:08:19.806Z,92.69
2019-05-09T07:09:19.807Z,92.98
2019-05-09T07:10:19.937Z,93.46
2019-05-09T07:11:20.076Z,92.60
2019-05-09T07:12:20.195Z,93.36
2019-05-09T07:13:20.323Z,93.08
2019-05-09T07:14:28.990Z,93.36
2019-05-09T07:15:20.581Z,94.03
2019-05-09T07:16:20.710Z,94.12
2019-05-09T07:17:20.836Z,93.27
2019-05-09T07:18:20.966Z,93.93
2019-05-09T07:19:21.094Z,92.79
2019-05-09T07:20:21.232Z,92.03
2019-05-09T07:21:21.366Z,92.32
2019-05-09T07:22:21.565Z,92.32
2019-05-09T07:23:21.612Z,92.32
2019-05-09T07:24:21.746Z,92.32
2019-05-09T07:25:21.888Z,92.32
2019-05-09T07:26:22.027Z,92.12
2019-05-09T07:27:22.148Z,91.69
2019-05-09T07:28:22.271Z,92.17
2019-05-09T07:29:22.410Z,92.26
2019-05-09T07:30:22.536Z,91.98
2019-05-09T07:31:22.667Z,91.60
2019-05-09T07:32:22.798Z,91.60
2019-05-09T07:33:22.923Z,91.88
2019-05-09T07:34:23.052Z,91.12
2019-05-09T07:35:23.181Z,90.64
2019-05-09T07:36:23.314Z,90.73
2019-05-09T07:37:23.441Z,90.07
2019-05-09T07:38:23.574Z,90.73
2019-05-09T07:39:23.703Z,90.93
2019-05-09T07:40:26.777Z,89.69
2019-05-09T07:41:23.957Z,90.73
2019-05-09T07:42:24.087Z,89.31
2019-05-09T07:43:24.223Z,88.54
2019-05-09T07:44:24.347Z,89.21
2019-05-09T07:45:24.472Z,89.21
2019-05-09T07:46:24.606Z,89.12
2019-05-09T07:47:24.730Z,89.31
2019-05-09T07:48:24.855Z,88.73
2019-05-09T07:49:24.980Z,89.31
2019-05-09T07:50:27.514Z,89.50
2019-05-09T07:51:27.331Z,89.88
2019-05-09T07:52:25.366Z,89.31
2019-05-09T07:53:25.496Z,89.78
2019-05-09T07:54:28.485Z,90.73
2019-05-09T07:55:27.433Z,89.40
2019-05-09T07:56:28.252Z,88.64
2019-05-09T07:57:28.385Z,88.92
2019-05-09T07:58:28.261Z,88.64
2019-05-09T07:59:27.448Z,88.83
2019-05-09T08:00:27.739Z,88.92
2019-05-09T08:01:28.076Z,89.12
2019-05-09T08:02:28.239Z,88.83
2019-05-09T08:03:27.570Z,88.45
2019-05-09T08:04:28.615Z,88.73
2019-05-09T08:05:27.965Z,89.50
2019-05-09T08:06:28.729Z,89.40
2019-05-09T08:07:29.090Z,88.26
2019-05-09T08:08:27.861Z,87.87
2019-05-09T08:09:28.256Z,88.54
2019-05-09T08:10:32.297Z,88.83
2019-05-09T08:11:28.688Z,88.07
2019-05-09T08:12:28.509Z,88.30
2019-05-09T08:13:28.964Z,88.49
2019-05-09T08:14:28.295Z,88.20
2019-05-09T08:15:28.333Z,87.82
2019-05-09T08:16:28.452Z,86.68
2019-05-09T08:17:28.780Z,86.10
2019-05-09T08:18:28.711Z,85.44
2019-05-09T08:19:28.838Z,86.30
2019-05-09T08:20:28.980Z,86.30
2019-05-09T08:21:29.104Z,85.44
2019-05-09T08:22:32.207Z,85.53
2019-05-09T08:23:29.379Z,86.30
2019-05-09T08:24:29.514Z,86.30
2019-05-09T08:25:29.637Z,85.38
2019-05-09T08:26:30.166Z,85.10
2019-05-09T08:27:30.382Z,84.62
2019-05-09T08:28:30.031Z,83.57
2019-05-09T08:29:30.161Z,84.14
2019-05-09T08:30:35.925Z,84.81
2019-05-09T08:31:30.417Z,84.33
2019-05-09T08:32:30.555Z,83.28
2019-05-09T08:33:30.689Z,83.09
2019-05-09T08:34:30.814Z,82.71
2019-05-09T08:35:30.949Z,82.52
2019-05-09T08:36:31.079Z,82.61
2019-05-09T08:37:31.219Z,83.76
2019-05-09T08:38:31.349Z,83.86
2019-05-09T08:39:31.475Z,83.57
2019-05-09T08:40:31.598Z,84.43
2019-05-09T08:41:31.726Z,83.67
2019-05-09T08:42:31.858Z,83.53
2019-05-09T08:43:31.987Z,84.52
2019-05-09T08:44:32.126Z,84.91
2019-05-09T08:45:32.244Z,85.38
2019-05-09T08:46:32.382Z,84.72
2019-05-09T08:47:32.513Z,83.86
2019-05-09T08:48:32.634Z,84.23
2019-05-09T08:49:32.757Z,85.10
2019-05-09T08:50:32.888Z,85.29
2019-05-09T08:51:36.739Z,84.23
2019-05-09T08:52:33.153Z,85.29
2019-05-09T08:53:33.289Z,83.67
2019-05-09T08:54:33.412Z,84.43
2019-05-09T08:55:33.540Z,82.90
2019-05-09T08:56:33.671Z,82.14
2019-05-09T08:57:33.802Z,81.27
2019-05-09T08:58:33.932Z,81.27
2019-05-09T08:59:34.079Z,81.47
2019-05-09T09:00:34.203Z,81.95
2019-05-09T09:01:49.157Z,81.51
2019-05-09T09:02:34.480Z,82.56
2019-05-09T09:03:34.595Z,81.13
2019-05-09T09:04:34.735Z,80.46
2019-05-09T09:05:34.866Z,79.12
2019-05-09T09:06:35.005Z,80.07
2019-05-09T09:07:37.725Z,80.46
2019-05-09T09:08:37.746Z,80.84
2019-05-09T09:09:37.706Z,80.27
2019-05-09T09:10:38.056Z,79.69
2019-05-09T09:11:35.646Z,79.50
2019-05-09T09:12:38.158Z,79.22
2019-05-09T09:13:37.805Z,79.88
2019-05-09T09:14:38.299Z,79.41
2019-05-09T09:16:02.243Z,78.36
2019-05-09T09:16:37.937Z,78.55
2019-05-09T09:17:38.502Z,78.74
2019-05-09T09:18:38.791Z,79.12
2019-05-09T09:19:38.601Z,77.97
2019-05-09T09:20:37.978Z,78.26
2019-05-09T09:21:38.795Z,78.39
2019-05-09T09:22:37.709Z,77.44
2019-05-09T09:23:43.977Z,77.44
2019-05-09T09:24:37.609Z,77.34
2019-05-09T09:25:39.146Z,77.34
2019-05-09T09:26:38.184Z,77.25
2019-05-09T09:27:38.166Z,77.06
2019-05-09T09:28:38.085Z,78.11
2019-05-09T09:29:38.287Z,76.20
2019-05-09T09:30:38.920Z,77.34
2019-05-09T09:31:38.280Z,78.49
2019-05-09T09:32:38.852Z,78.58
2019-05-09T09:33:38.548Z,76.77
2019-05-09T09:34:38.669Z,75.68
2019-05-09T09:35:38.812Z,77.59
2019-05-09T09:36:39.237Z,77.40
2019-05-09T09:37:48.355Z,77.30
2019-05-09T09:38:39.203Z,76.92
2019-05-09T09:39:44.407Z,77.21
2019-05-09T09:40:39.454Z,77.11
2019-05-09T09:41:39.605Z,78.26
2019-05-09T09:42:40.031Z,77.59
2019-05-09T09:43:39.857Z,77.78
2019-05-09T09:44:39.987Z,78.36
2019-05-09T09:45:40.135Z,77.69
2019-05-09T09:46:40.249Z,77.01
2019-05-09T09:47:40.701Z,78.16
2019-05-09T09:48:40.510Z,78.16
2019-05-09T09:49:40.647Z,78.26
2019-05-09T09:50:40.775Z,78.64
2019-05-09T09:51:40.907Z,78.83
2019-05-09T09:52:41.050Z,79.02
2019-05-09T09:53:41.179Z,79.50
2019-05-09T09:54:41.307Z,79.12
2019-05-09T09:55:41.448Z,79.12
2019-05-09T09:56:41.560Z,78.07
2019-05-09T09:57:41.697Z,78.55
2019-05-09T09:58:41.829Z,78.93
2019-05-09T09:59:41.960Z,79.17
2019-05-09T10:00:42.102Z,79.22
2019-05-09T10:01:42.231Z,79.41
2019-05-09T10:02:42.357Z,79.98
2019-05-09T10:03:42.506Z,79.69
2019-05-09T10:04:42.618Z,79.22
2019-05-09T10:05:42.746Z,80.27
2019-05-09T10:06:42.876Z,80.17
2019-05-09T10:07:43.007Z,80.93
2019-05-09T10:08:43.141Z,81.07
2019-05-09T10:09:43.276Z,80.69
2019-05-09T10:10:43.398Z,79.83
2019-05-09T10:11:43.532Z,78.78
2019-05-09T10:12:44.669Z,78.49
2019-05-09T10:13:43.784Z,78.68
2019-05-09T10:14:43.909Z,79.54
2019-05-09T10:15:44.034Z,78.39
2019-05-09T10:16:44.169Z,78.49
2019-05-09T10:17:44.296Z,78.72
2019-05-09T10:18:44.435Z,76.39
2019-05-09T10:19:44.569Z,76.57
2019-05-09T10:20:44.700Z,76.39
2019-05-09T10:21:44.832Z,77.63
2019-05-09T10:22:55.316Z,77.44
2019-05-09T10:23:45.097Z,78.20
2019-05-09T10:24:47.728Z,76.39
2019-05-09T10:25:45.352Z,76.00
2019-05-09T10:26:45.485Z,77.53
2019-05-09T10:27:47.881Z,77.63
2019-05-09T10:28:45.753Z,77.34
2019-05-09T10:29:47.842Z,78.49
2019-05-09T10:30:48.375Z,77.44
2019-05-09T10:31:48.638Z,76.10
2019-05-09T10:32:47.633Z,76.57
2019-05-09T10:33:48.241Z,76.48
2019-05-09T10:34:48.825Z,76.67
2019-05-09T10:35:47.880Z,76.39
2019-05-09T10:36:47.600Z,76.39
2019-05-09T10:37:48.553Z,75.91
2019-05-09T10:38:47.861Z,76.29
2019-05-09T10:39:49.081Z,76.39
2019-05-09T10:40:48.586Z,76.20
2019-05-09T10:41:48.274Z,75.91
2019-05-09T10:42:48.330Z,75.37
2019-05-09T10:43:48.629Z,76.67
2019-05-09T10:44:48.892Z,75.95
2019-05-09T10:45:48.468Z,75.95
2019-05-09T10:46:53.626Z,75.27
2019-05-09T10:47:48.376Z,74.38
2019-05-09T10:48:48.345Z,74.48
2019-05-09T10:49:48.891Z,74.51
2019-05-09T10:50:53.861Z,74.28
2019-05-09T10:51:48.754Z,73.33
2019-05-09T10:52:48.887Z,73.99
2019-05-09T10:53:49.017Z,74.76
2019-05-09T10:54:49.168Z,75.37
2019-05-09T10:55:49.295Z,74.90
2019-05-09T10:56:49.428Z,74.51
2019-05-09T10:57:52.546Z,74.28
2019-05-09T10:58:49.684Z,74.22
2019-05-09T10:59:49.813Z,74.38
2019-05-09T11:00:49.948Z,74.48
2019-05-09T11:01:50.073Z,74.28
2019-05-09T11:02:50.197Z,74.04
2019-05-09T11:03:50.342Z,73.23
2019-05-09T11:04:50.460Z,74.19
2019-05-09T11:05:50.587Z,74.80
2019-05-09T11:06:50.727Z,75.27
2019-05-09T11:07:50.883Z,74.51
2019-05-09T11:08:51.023Z,75.09
2019-05-09T11:09:51.161Z,74.90
2019-05-09T11:10:51.273Z,73.55
2019-05-09T11:11:51.407Z,73.17
2019-05-09T11:12:51.599Z,72.98
2019-05-09T11:13:51.750Z,72.88
2019-05-09T11:14:51.873Z,73.75
2019-05-09T11:15:52.039Z,72.98
2019-05-09T11:17:06.846Z,73.55
2019-05-09T11:17:52.289Z,74.26
2019-05-09T11:18:52.427Z,72.98
2019-05-09T11:19:52.574Z,72.69
2019-05-09T11:20:52.711Z,72.02
2019-05-09T11:21:52.852Z,71.73
2019-05-09T11:22:52.970Z,71.64
2019-05-09T11:23:53.098Z,71.07
2019-05-09T11:24:53.257Z,72.02
2019-05-09T11:25:53.464Z,71.26
2019-05-09T11:26:53.469Z,71.03
2019-05-09T11:28:06.896Z,72.47
2019-05-09T11:28:53.760Z,72.75
2019-05-09T11:29:53.892Z,72.66
2019-05-09T11:30:54.013Z,73.14
2019-05-09T11:31:54.142Z,73.14
2019-05-09T11:32:54.292Z,72.85
2019-05-09T11:34:09.268Z,72.75
2019-05-09T11:34:54.515Z,73.52
2019-05-09T11:35:54.656Z,74.19
2019-05-09T11:36:54.788Z,74.57
2019-05-09T11:37:54.977Z,73.99
2019-05-09T11:38:55.148Z,74.28
2019-05-09T11:39:55.239Z,75.81
2019-05-09T11:40:57.442Z,75.14
2019-05-09T11:41:58.373Z,75.91
2019-05-09T11:42:55.622Z,76.39
2019-05-09T11:43:55.752Z,76.39
2019-05-09T11:44:57.786Z,77.15
2019-05-09T11:45:58.022Z,78.20
2019-05-09T11:46:58.227Z,78.16
2019-05-09T11:47:58.259Z,78.01
2019-05-09T11:48:58.471Z,77.50
2019-05-09T11:49:57.765Z,77.30
2019-05-09T11:50:58.001Z,77.50
2019-05-09T11:51:57.645Z,77.21
2019-05-09T11:52:59.773Z,77.59
2019-05-09T11:53:58.144Z,77.11
2019-05-09T11:54:58.045Z,78.26
2019-05-09T11:55:57.924Z,77.40
2019-05-09T11:56:57.750Z,77.30
2019-05-09T11:57:59.013Z,77.01
2019-05-09T11:58:58.068Z,77.01
2019-05-09T11:59:58.071Z,77.40
2019-05-09T12:01:01.710Z,77.53
2019-05-09T12:01:58.806Z,78.30
2019-05-09T12:02:58.442Z,78.39
2019-05-09T12:03:58.544Z,78.30
2019-05-09T12:04:58.695Z,78.68
2019-05-09T12:05:58.811Z,77.44
2019-05-09T12:06:58.946Z,77.53
2019-05-09T12:07:59.070Z,78.30
2019-05-09T12:08:59.276Z,77.82
2019-05-09T12:09:59.358Z,77.34
2019-05-09T12:10:59.501Z,77.15
2019-05-09T12:11:59.645Z,76.52
2019-05-09T12:12:59.824Z,76.42
2019-05-09T12:13:59.943Z,76.42
2019-05-09T12:15:00.084Z,76.33
2019-05-09T12:16:00.270Z,76.42
2019-05-09T12:17:00.382Z,76.33
2019-05-09T12:18:07.725Z,76.04
2019-05-09T12:19:00.653Z,76.42
2019-05-09T12:20:09.574Z,76.04
2019-05-09T12:21:00.999Z,76.04
2019-05-09T12:22:01.139Z,76.46
2019-05-09T12:23:01.265Z,76.52
2019-05-09T12:24:01.419Z,77.19
2019-05-09T12:25:01.643Z,77.09
2019-05-09T12:26:01.637Z,77.61
2019-05-09T12:27:03.109Z,76.65
2019-05-09T12:28:01.945Z,75.98
2019-05-09T12:29:02.077Z,76.33
2019-05-09T12:30:02.207Z,75.95
2019-05-09T12:31:02.340Z,76.14
2019-05-09T12:32:02.516Z,76.04
2019-05-09T12:33:02.628Z,75.37
2019-05-09T12:34:02.758Z,74.13
2019-05-09T12:35:02.999Z,74.61
2019-05-09T12:36:03.078Z,75.56
2019-05-09T12:37:03.186Z,76.04
2019-05-09T12:38:03.319Z,76.10
2019-05-09T12:39:03.462Z,76.96
2019-05-09T12:40:03.584Z,77.34
2019-05-09T12:41:03.727Z,77.44
2019-05-09T12:42:03.851Z,77.06
2019-05-09T12:43:04.027Z,77.25
2019-05-09T12:44:04.187Z,77.25
2019-05-09T12:45:04.281Z,77.63
2019-05-09T12:46:04.406Z,77.53
2019-05-09T12:47:04.578Z,77.53
2019-05-09T12:48:10.327Z,78.39
2019-05-09T12:49:04.833Z,79.69
2019-05-09T12:50:04.958Z,80.21
2019-05-09T12:51:05.110Z,81.03
2019-05-09T12:52:08.040Z,81.79
2019-05-09T12:53:05.374Z,81.79
2019-05-09T12:54:08.191Z,82.84
2019-05-09T12:55:07.965Z,82.75
2019-05-09T12:56:07.970Z,82.70